Airfield :
LOGIN :

Register | Disclaimer

   EN    FR    IT 

 










Legend :    VFR   Marginal VFR   IFR   Intensive IFR   Very Intensive IFR
Visi :
Ceiling :
>= 8 km
>= 3000ft
5 to 8 km
1000 to 3000 ft
1500m to 5 km
500 to 1000 ft
800 to 1500m
200 to 500 ft
< 800m
< 200 ft
Symbols :   Thunderstorms  Fog  Heavy snow  Heavy precipitations  Wind > 20 kt
SIGMETs :     Misc.  Thunderstorms  Icing  Turbulence  Mountain Waves  Volcanic Ashes






- Airport Elevation : 44 ft
- IATA code : SOU


EGHI - Southampton

CURRENT METAR :
  • 231450Z 28014G26KT 240V310 9999 FEW020 SCT038 13/05 Q1019

EXPIRED METARs :
  • 231420Z 27014KT 240V310 9999 VCSH FEW020 SCT042 13/05 Q1019
  • 231350Z 28017KT 250V320 9999 VCSH SCT020 13/06 Q1018
  • 231320Z 29011KT 250V330 9999 VCSH FEW015 SCT020 13/09 Q1018
  • 231250Z 28013G24KT 220V320 9999 VCSH FEW012 BKN022 12/10 Q1017
  • 231220Z 27014G25KT 240V300 9999 FEW014 BKN025 15/09 Q1016

TAF TAF EGHI
Valid from the 23 at 15:00 until the 24 at 00:00 UTC


231357Z 2315/2324 29014KT SCT020
BECMG 2321/2324 15010KT
PROB30
TEMPO 2321/2324 7000 -RA BKN014
ATIS : +44 23 8062 7103



MET'MAP, your aeronautical weather chart ! - Copyright ORBIFLY December 2007 - Disclaimer

ORBIFLY MET'MAP TEAM :

Programming & Development : Alexandra Zaïnal
Concept & original design : Baudouin d'Aumeries
Assistance for programming : Marc-Olivier Méhu
Technical & hardware support : Manuel Goepfert

Contact : metmap@orbifly.com




SOURCES & CREDITS :

   NOAA